Denison, Texas
Current Conditions -  °F | °C
As of 3:15 PM on Sunday 23 Nov 2014 (Local Time) from KGYI Reporting Station
Clear Clear  
Wind Chill: 74°   Ceiling: Unl
Heat Index: 74°   Visibility: 10mi
Dew Point: 42°   Wind: 22mph
Humidity: 31%   Direction: 260°W
Pressure: 29.37"   Gusts: 31mph
Location:  33.76°N, 96.54°W
Report Text: KGYI 232115Z AUTO 26019G27KT 10SM CLR 24/05 A2937 RMK AO2 T02350054
Loading
Personal Weather Stations






























Interactive Weather Map New forecast layout! Learn more

10-Day Weather Forecast

Advertisements
Track Severe Weather on mobile